Ciudad Juárez, México

1:11 PM MDT en Agosto 28, 2015 (GMT -0600)
Vista del Sol | | Change Station
CLOSE
Current Station
Estación meteorológica personal
Location: El Paso, TX
Altura: 4010 ft
Estaciones meteorológicas cercanas

Alt 4010 ft 31.76 °N, 106.34 °W | Updated 3 minutes ago

Scattered Clouds
Nubes dispersas
95.4 ° F
Sensación térmica 94 ° F
N
2.0
Viento Variable Viento desde Norte
Gusts 6.0 mph

Hoy
Alta -- | Baja -- ° F
--% Posibilidad de precipitaciones
Ayer
Alta -- | Baja -- ° F
Precip. -- pul
6:38 AM 7:34 PM
Gibosa creciente, 99% visible
Presión 29.83 pul
Visibilidad 10.0 Millas
Nubes Baja 9500 ft
Baja 13000 ft
Nubes dispersas 25000 ft
Índice de calor 94 ° F
Punto de rocío 56 ° F
Humedad 27%
Precipitaciones 0.00 pul
Espesor de la nieve No disponible.
UV 9 de una escala de 12
Polen No disponible.
Calidad del aire No disponible.
Flu Activity No disponible.
METAR KELP 281851Z 00000KT 10SM FEW095TCU FEW130 SCT250 33/12 A3007 RMK AO2 SLP102 OCNL LTGIC DSNT NE CB DSNT NE TCU NW AND DSNT SE AND S-SW T03330117
Presión 29.83 pul
Visibilidad 10.0 Millas
Nubes Baja 9500 ft
Baja 13000 ft
Nubes dispersas 25000 ft
Índice de calor 94 ° F
Punto de rocío 56 ° F
Humedad 27%
Precipitaciones 0.00 pul
Espesor de la nieve No disponible.
UV 9 de una escala de 12
Polen No disponible.
Calidad del aire No disponible.
Flu Activity No disponible.
METAR KELP 281851Z 00000KT 10SM FEW095TCU FEW130 SCT250 33/12 A3007 RMK AO2 SLP102 OCNL LTGIC DSNT NE CB DSNT NE TCU NW AND DSNT SE AND S-SW T03330117

10-Day Weather Forecast

×

Almanac

Astronomía

Aug. 28, 2015 Salida Puesta
Hora real
Crepúsculo civil
Crepúsculo náutico
Crepúsculo astronómico
Luna
Horas de luz
Horas de luz
Tomorrow will be .
, % of the Moon is Illuminated

Extremos de hoy

Máximos del país Bajas del país

Community

WunderPhotos

Upload Photos

1,850,460 ¡fotos cargadas!

WunderBlogs® & News

Nearby

Calidad del aire

  Calidad del aire Índice AQ Contaminante
Not available.

Grosos de nieve

Estación Profundido Altura

Actividad de terremotos

Ciudad Distance Mag. Tiempo y dato
Magnitud mínima muestra es 2,5.

Temperaturas de aguas costeras

Lugar Temperatura

Stations

Estaciones meteorológicas cercanas

Ubicación de la estación Temp. Vientos helados Punto de rocío Humedad Viento Precip. Alt Actualizado Tipo